Time;durP1;ratioP1;P1;durP2;ratioP2;P2;SDS_P1;SDS_P2;PMS_P1;PMS_P2;Temp;Humidity;BMP_temperature;BMP_pressure;BME280_temperature;BME280_humidity;BME280_pressure;Samples;Min_cycle;Max_cycle;Signal;HPM_P1;HPM_P2
2021/03/14 05:11:54;;;;;;;1.30;1.30;;;6.10;98.60;;;;;;5325544;23;20235;-75
2021/03/14 05:14:21;;;;;;;1.40;1.40;;;;;;;;;;5014104;28;20281;-75
2021/03/14 05:16:48;;;;;;;1.10;1.10;;;6.10;99.90;;;;;;5009580;28;20195;-75
2021/03/14 05:19:16;;;;;;;1.23;1.23;;;6.10;99.90;;;;;;4996260;28;20286;-76
2021/03/14 05:21:56;;;;;;;1.20;1.20;;;6.00;99.90;;;;;;4980071;28;20600;-76
2021/03/14 05:24:24;;;;;;;1.20;1.20;;;6.10;98.50;;;;;;4975168;28;20287;-75
2021/03/14 05:26:52;;;;;;;1.23;1.23;;;;;;;;;;4974709;28;20233;-75
2021/03/14 05:29:20;;;;;;;1.20;1.20;;;6.10;99.90;;;;;;4974314;28;20201;-75
2021/03/14 05:31:48;;;;;;;1.37;1.37;;;6.00;98.60;;;;;;4975203;28;20302;-75
2021/03/14 05:34:17;;;;;;;1.00;1.00;;;6.00;98.70;;;;;;4993538;28;20286;-75
2021/03/14 05:36:44;;;;;;;1.10;1.10;;;;;;;;;;4993326;28;20223;-75
2021/03/14 05:39:12;;;;;;;1.10;1.10;;;6.00;99.90;;;;;;4993181;28;20577;-75
2021/03/14 05:41:40;;;;;;;1.23;1.23;;;5.90;99.90;;;;;;4993060;28;20226;-75
2021/03/14 05:44:08;;;;;;;1.00;1.00;;;6.00;99.90;;;;;;4993318;28;20203;-75
2021/03/14 05:46:36;;;;;;;1.20;1.20;;;5.90;99.90;;;;;;4993119;28;20307;-75
2021/03/14 05:49:05;;;;;;;1.10;1.10;;;6.00;99.90;;;;;;4993359;28;20204;-75
2021/03/14 05:51:34;;;;;;;1.10;1.10;;;6.10;98.60;;;;;;4992882;28;20283;-75
2021/03/14 05:54:02;;;;;;;1.10;1.10;;;6.10;98.80;;;;;;4993139;28;20250;-75
2021/03/14 05:56:31;;;;;;;1.10;1.10;;;6.10;99.90;;;;;;4993084;28;20200;-75
2021/03/14 05:58:58;;;;;;;1.30;1.30;;;6.10;98.60;;;;;;4993474;28;20216;-75
2021/03/14 06:01:28;;;;;;;1.20;1.20;;;6.10;99.90;;;;;;4992702;28;20315;-74
2021/03/14 06:03:58;;;;;;;1.10;1.10;;;6.30;99.90;;;;;;4992829;28;20223;-75
2021/03/14 06:06:26;;;;;;;1.27;1.27;;;6.20;98.10;;;;;;4992950;28;20274;-75
2021/03/14 06:08:53;;;;;;;1.20;1.20;;;6.10;99.90;;;;;;4992798;28;20580;-75
2021/03/14 06:11:20;;;;;;;1.00;1.00;;;6.20;99.90;;;;;;4992452;28;20231;-74
2021/03/14 06:13:48;;;;;;;1.37;1.37;;;6.30;99.90;;;;;;4992579;28;20240;-74
2021/03/14 06:16:15;;;;;;;1.20;1.20;;;6.30;99.90;;;;;;4992981;28;20562;-73
2021/03/14 06:18:43;;;;;;;1.07;1.07;;;6.40;97.90;;;;;;4992910;28;20208;-75
2021/03/14 06:21:21;;;;;;;1.00;1.00;;;6.40;99.90;;;;;;4992639;28;20705;-74
2021/03/14 06:23:59;;;;;;;1.23;1.23;;;6.50;97.30;;;;;;4992656;28;20207;-75
2021/03/14 06:26:37;;;;;;;1.00;1.00;;;6.60;99.90;;;;;;4992895;28;20285;-74
2021/03/14 06:29:23;;;;;;;1.13;1.13;;;6.60;99.90;;;;;;4992849;28;20207;-74
2021/03/14 06:31:52;;;;;;;1.00;1.00;;;6.60;99.90;;;;;;4992651;28;20611;-74
2021/03/14 06:34:29;;;;;;;1.20;1.20;;;6.60;99.90;;;;;;4992520;28;20580;-74
2021/03/14 06:36:58;;;;;;;1.10;1.10;;;7.00;99.90;;;;;;4992450;28;20604;-74
2021/03/14 06:39:27;;;;;;;1.17;1.17;;;6.70;96.20;;;;;;4992256;28;20250;-74
2021/03/14 06:41:55;;;;;;;1.00;1.00;;;7.30;99.90;;;;;;4992232;28;20635;-74
2021/03/14 06:44:42;;;;;;;0.97;0.97;;;6.90;99.90;;;;;;4992533;28;20272;-74
2021/03/14 06:47:10;;;;;;;1.10;1.10;;;6.90;99.90;;;;;;4992537;28;20219;-74
2021/03/14 06:49:39;;;;;;;1.10;1.10;;;7.00;99.90;;;;;;4992445;28;20204;-74
2021/03/14 06:52:08;;;;;;;1.30;1.30;;;7.00;99.90;;;;;;4992002;28;20603;-74
2021/03/14 06:54:36;;;;;;;1.00;1.00;;;6.90;99.90;;;;;;4992573;28;20608;-74
2021/03/14 06:57:06;;;;;;;1.10;1.10;;;7.00;99.90;;;;;;4992753;28;20677;-74
2021/03/14 06:59:35;;;;;;;1.30;1.30;;;7.10;99.90;;;;;;4992145;28;20250;-74
2021/03/14 07:02:04;;;;;;;1.10;1.10;;;7.20;99.90;;;;;;4992055;28;20274;-74
2021/03/14 07:04:33;;;;;;;1.00;1.00;;;7.10;99.90;;;;;;4992352;28;20691;-75
2021/03/14 07:07:01;;;;;;;0.93;0.93;;;7.00;99.90;;;;;;4989544;28;20294;-74
2021/03/14 07:09:29;;;;;;;1.10;1.10;;;7.10;99.90;;;;;;4990112;28;20207;-74
2021/03/14 07:11:56;;;;;;;1.33;1.33;;;7.10;99.90;;;;;;4971502;28;20721;-74
2021/03/14 07:14:25;;;;;;;1.10;1.10;;;7.20;94.60;;;;;;4972031;28;20263;-74
2021/03/14 07:16:53;;;;;;;1.00;1.00;;;7.30;94.50;;;;;;4975791;28;20223;-75
2021/03/14 07:19:22;;;;;;;1.03;1.03;;;7.10;99.90;;;;;;4975994;28;20212;-74
2021/03/14 07:22:04;;;;;;;1.07;1.07;;;7.40;99.90;;;;;;4975420;28;20220;-74
2021/03/14 07:24:37;;;;;;;1.10;1.10;;;8.30;99.00;;;;;;4976311;28;20235;-76
2021/03/14 07:27:05;;;;;;;1.00;1.00;;;7.70;99.90;;;;;;4976325;28;20232;-76
2021/03/14 07:29:34;;;;;;;1.10;1.10;;;7.70;99.90;;;;;;4976050;28;20209;-75
2021/03/14 07:32:03;;;;;;;1.00;1.00;;;7.60;99.90;;;;;;4975395;28;20717;-75
2021/03/14 07:34:33;;;;;;;1.00;1.00;;;7.60;94.00;;;;;;4982900;28;21477;-78
2021/03/14 07:37:01;;;;;;;1.10;1.10;;;;;;;;;;5000181;28;20192;-77
2021/03/14 07:39:28;;;;;;;1.00;1.00;;;;;;;;;;4995647;28;20607;-77
2021/03/14 07:41:57;;;;;;;1.10;1.10;;;7.90;96.40;;;;;;5004721;28;20223;-74
2021/03/14 07:44:25;;;;;;;1.10;1.10;;;7.70;99.90;;;;;;5013840;28;20214;-76
2021/03/14 07:46:53;;;;;;;1.10;1.10;;;7.80;94.00;;;;;;5013063;28;20215;-77
2021/03/14 07:49:23;;;;;;;1.00;1.00;;;7.90;94.10;;;;;;5014111;28;20199;-77
2021/03/14 07:51:54;;;;;;;1.00;1.00;;;8.10;93.80;;;;;;5014649;28;20227;-77
2021/03/14 07:54:26;;;;;;;1.03;1.03;;;8.20;99.90;;;;;;5015569;28;20366;-75
2021/03/14 07:56:57;;;;;;;1.00;1.00;;;8.20;93.00;;;;;;5014474;28;20273;-75
2021/03/14 07:59:26;;;;;;;0.93;0.93;;;8.20;93.00;;;;;;4986226;28;20216;-76
2021/03/14 08:01:54;;;;;;;1.00;1.00;;;;;;;;;;4978706;28;20660;-77
2021/03/14 08:04:30;;;;;;;1.03;1.03;;;8.60;99.90;;;;;;4994800;28;20208;-77
2021/03/14 08:06:57;;;;;;;1.07;1.07;;;;;;;;;;4988421;28;20219;-76
2021/03/14 08:09:45;;;;;;;0.93;0.93;;;8.80;99.90;;;;;;4981127;28;20207;-75
2021/03/14 08:12:24;;;;;;;0.90;0.90;;;8.30;99.90;;;;;;4983737;28;20232;-76
2021/03/14 08:14:53;;;;;;;0.70;0.70;;;8.40;99.90;;;;;;4984182;28;20207;-77
2021/03/14 08:17:23;;;;;;;0.90;0.90;;;8.30;99.90;;;;;;4983716;28;20227;-75
2021/03/14 08:19:52;;;;;;;1.00;1.00;;;8.30;99.90;;;;;;4983774;28;20216;-75
2021/03/14 08:22:45;;;;;;;1.03;1.03;;;8.20;99.90;;;;;;4984399;28;20216;-78
2021/03/14 08:25:23;;;;;;;1.00;1.00;;;8.20;92.10;;;;;;4984292;28;20212;-76
2021/03/14 08:27:54;;;;;;;1.10;1.10;;;8.30;99.90;;;;;;4982158;28;20281;-75
2021/03/14 08:30:44;;;;;;;1.00;1.00;;;8.30;99.90;;;;;;4983923;28;20283;-75
2021/03/14 08:33:29;;;;;;;1.00;1.00;;;8.10;99.90;;;;;;4983459;28;20224;-76
2021/03/14 08:35:59;;;;;;;1.00;1.00;;;8.10;99.90;;;;;;4984110;28;20666;-75
2021/03/14 08:38:35;;;;;;;1.10;1.10;;;8.20;99.90;;;;;;4982815;28;20217;-75
2021/03/14 08:41:34;;;;;;;1.10;1.10;;;8.20;92.70;;;;;;4983235;28;20274;-76
2021/03/14 08:44:04;;;;;;;1.20;1.20;;;8.30;99.90;;;;;;4984318;28;20200;-75
2021/03/14 08:47:06;;;;;;;1.10;1.10;;;8.30;99.90;;;;;;4983207;28;20201;-75
2021/03/14 08:49:42;;;;;;;1.10;1.10;;;8.40;99.90;;;;;;4982906;28;20207;-75
2021/03/14 08:52:10;;;;;;;1.00;1.00;;;8.50;92.20;;;;;;4982116;28;20220;-75
2021/03/14 08:54:41;;;;;;;1.10;1.10;;;8.30;99.90;;;;;;4983994;28;20196;-74
2021/03/14 08:57:09;;;;;;;0.90;0.90;;;9.00;99.90;;;;;;4984601;28;20557;-75
2021/03/14 08:59:45;;;;;;;1.10;1.10;;;8.40;99.90;;;;;;4982972;28;20209;-75
2021/03/14 09:02:21;;;;;;;0.90;0.90;;;8.50;99.90;;;;;;4982163;28;20220;-75
2021/03/14 09:04:48;;;;;;;0.90;0.90;;;;;;;;;;4982371;28;20215;-75
2021/03/14 09:07:16;;;;;;;1.00;1.00;;;8.40;99.90;;;;;;4983848;28;20220;-75
2021/03/14 09:09:42;;;;;;;1.10;1.10;;;8.30;99.90;;;;;;4983387;28;20653;-75
2021/03/14 09:12:11;;;;;;;1.00;1.00;;;8.30;96.00;;;;;;4981799;28;20224;-76
2021/03/14 09:14:41;;;;;;;0.90;0.90;;;7.90;99.90;;;;;;4983230;28;20256;-75
2021/03/14 09:17:10;;;;;;;1.00;1.00;;;7.40;99.90;;;;;;4984021;28;20700;-75
2021/03/14 09:19:40;;;;;;;1.07;1.07;;;7.20;99.90;;;;;;4982531;28;20227;-75
2021/03/14 09:22:11;;;;;;;1.10;1.10;;;7.10;99.90;;;;;;4981881;28;20770;-74
2021/03/14 09:24:55;;;;;;;1.00;1.00;;;6.90;99.90;;;;;;4983970;28;20212;-75
2021/03/14 09:27:24;;;;;;;1.00;1.00;;;7.00;99.90;;;;;;4982718;28;20739;-74
2021/03/14 09:29:54;;;;;;;1.30;1.30;;;6.60;99.90;;;;;;4981620;28;20216;-76
2021/03/14 09:32:41;;;;;;;1.20;1.20;;;6.50;99.90;;;;;;4982765;28;20716;-74
2021/03/14 09:35:31;;;;;;;1.27;1.27;;;6.40;99.90;;;;;;4983952;28;20204;-72
2021/03/14 09:38:00;;;;;;;1.30;1.30;;;6.30;99.90;;;;;;4981652;28;20209;-76
2021/03/14 09:40:29;;;;;;;1.37;1.37;;;6.20;99.90;;;;;;4983006;28;20243;-78
2021/03/14 09:43:14;;;;;;;1.10;1.10;;;5.90;99.90;;;;;;4982858;28;20200;-80
2021/03/14 09:45:44;;;;;;;1.00;1.00;;;6.20;99.90;;;;;;4994898;28;20262;-76
2021/03/14 09:48:14;;;;;;;1.20;1.20;;;6.10;99.90;;;;;;4992348;28;20700;-76
2021/03/14 09:50:49;;;;;;;1.00;1.00;;;6.10;99.90;;;;;;4992666;28;20220;-77
2021/03/14 09:53:17;;;;;;;1.20;1.20;;;6.10;99.90;;;;;;4993339;28;20207;-77
2021/03/14 09:55:46;;;;;;;1.20;1.20;;;6.10;99.90;;;;;;4992811;28;20223;-74
2021/03/14 09:58:14;;;;;;;1.00;1.00;;;6.10;99.90;;;;;;4992578;28;20297;-76
2021/03/14 10:00:48;;;;;;;1.27;1.27;;;6.10;99.90;;;;;;4986432;28;20307;-77
2021/03/14 10:03:20;;;;;;;1.00;1.00;;;6.20;99.90;;;;;;4992270;28;20208;-76
2021/03/14 10:05:50;;;;;;;1.10;1.10;;;6.20;99.90;;;;;;4992506;28;20303;-76
2021/03/14 10:08:18;;;;;;;1.10;1.10;;;6.30;99.90;;;;;;4992292;28;20278;-78
2021/03/14 10:10:48;;;;;;;1.10;1.10;;;6.30;99.90;;;;;;4991953;28;20290;-77
2021/03/14 10:13:21;;;;;;;1.23;1.23;;;6.30;99.90;;;;;;4992018;28;20295;-78
2021/03/14 10:15:53;;;;;;;1.10;1.10;;;6.30;99.90;;;;;;4992382;28;20226;-78
2021/03/14 10:18:21;;;;;;;1.10;1.10;;;6.30;99.90;;;;;;4992152;28;20206;-77
2021/03/14 10:20:50;;;;;;;1.10;1.10;;;6.40;99.90;;;;;;4989089;28;20701;-77
2021/03/14 10:23:23;;;;;;;1.03;1.03;;;6.50;99.90;;;;;;4992205;28;20254;-77
2021/03/14 10:25:50;;;;;;;1.00;1.00;;;6.60;99.90;;;;;;4996324;28;20662;-77
2021/03/14 10:28:19;;;;;;;0.90;0.90;;;6.60;99.90;;;;;;4995983;28;20231;-78
2021/03/14 10:30:48;;;;;;;1.00;1.00;;;6.60;99.90;;;;;;4996766;28;20274;-78
2021/03/14 10:33:27;;;;;;;1.13;1.13;;;6.70;99.90;;;;;;4992512;28;20203;-77
2021/03/14 10:36:01;;;;;;;1.37;1.37;;;6.70;99.90;;;;;;4976939;28;20208;-78
2021/03/14 10:38:28;;;;;;;1.10;1.10;;;6.80;99.90;;;;;;4975119;28;20270;-77
2021/03/14 10:41:08;;;;;;;1.23;1.23;;;6.90;99.90;;;;;;4975430;28;20228;-76
2021/03/14 10:43:44;;;;;;;1.30;1.30;;;7.00;99.90;;;;;;4975931;28;20673;-78
2021/03/14 10:46:11;;;;;;;1.10;1.10;;;7.00;99.90;;;;;;4977114;28;20204;-78
2021/03/14 10:48:39;;;;;;;1.00;1.00;;;7.10;99.90;;;;;;4979395;28;20220;-78
2021/03/14 10:51:07;;;;;;;1.10;1.10;;;7.30;99.90;;;;;;4978332;28;20225;-76
2021/03/14 10:53:35;;;;;;;1.20;1.20;;;7.50;99.90;;;;;;4974084;28;20626;-76
2021/03/14 10:56:06;;;;;;;1.00;1.00;;;7.40;99.90;;;;;;4974636;28;20725;-76
2021/03/14 10:58:38;;;;;;;1.00;1.00;;;7.60;99.90;;;;;;4973881;28;20197;-76
2021/03/14 11:01:07;;;;;;;1.00;1.00;;;7.50;99.90;;;;;;4973135;28;20279;-76
2021/03/14 11:03:37;;;;;;;1.00;1.00;;;7.50;99.90;;;;;;4972662;28;20211;-76
2021/03/14 11:06:11;;;;;;;1.10;1.10;;;7.40;99.90;;;;;;4972829;28;20201;-77
2021/03/14 11:08:49;;;;;;;1.10;1.10;;;7.40;99.90;;;;;;4972889;28;20224;-76
2021/03/14 11:11:16;;;;;;;0.90;0.90;;;;;;;;;;4973140;28;20279;-77
2021/03/14 11:13:43;;;;;;;1.10;1.10;;;7.40;99.90;;;;;;4974030;28;20204;-77
2021/03/14 11:16:11;;;;;;;0.93;0.93;;;;;;;;;;4973481;28;20692;-77
2021/03/14 11:18:38;;;;;;;0.97;0.97;;;;;;;;;;4973010;28;20200;-77
2021/03/14 11:21:07;;;;;;;1.00;1.00;;;7.70;99.90;;;;;;4975764;28;20229;-78
2021/03/14 11:23:34;;;;;;;1.17;1.17;;;7.60;99.90;;;;;;4973500;28;20209;-74
2021/03/14 11:26:10;;;;;;;1.10;1.10;;;7.40;99.90;;;;;;4971849;28;20255;-77
2021/03/14 11:28:43;;;;;;;1.13;1.13;;;7.40;99.90;;;;;;4972301;28;20228;-75
2021/03/14 11:31:10;;;;;;;0.90;0.90;;;7.80;99.90;;;;;;4972111;28;20224;-75
2021/03/14 11:33:37;;;;;;;1.00;1.00;;;7.50;99.90;;;;;;4981955;28;20204;-75
2021/03/14 11:36:05;;;;;;;1.00;1.00;;;;;;;;;;4991473;28;20258;-75
2021/03/14 11:38:32;;;;;;;0.93;0.93;;;7.90;99.90;;;;;;4980728;28;20233;-75
2021/03/14 11:40:59;;;;;;;1.00;1.00;;;7.90;99.90;;;;;;4988477;28;20737;-75
2021/03/14 11:43:28;;;;;;;1.10;1.10;;;7.50;99.90;;;;;;4975575;28;20205;-75
2021/03/14 11:45:55;;;;;;;1.10;1.10;;;7.30;99.90;;;;;;4991348;28;20613;-75
2021/03/14 11:48:22;;;;;;;1.00;1.00;;;7.10;99.90;;;;;;4972020;28;20220;-74
2021/03/14 11:50:49;;;;;;;1.03;1.03;;;7.30;99.90;;;;;;4980395;28;20270;-74
2021/03/14 11:53:17;;;;;;;1.37;1.37;;;7.00;99.90;;;;;;4991259;28;20211;-74
2021/03/14 11:55:44;;;;;;;1.20;1.20;;;;;;;;;;4991746;28;20258;-75
2021/03/14 11:58:12;;;;;;;1.10;1.10;;;7.20;99.90;;;;;;4975136;28;20200;-75
2021/03/14 12:00:39;;;;;;;1.13;1.13;;;;;;;;;;4972442;28;20229;-75
2021/03/14 12:03:06;;;;;;;0.90;0.90;;;7.60;99.90;;;;;;4975690;28;20204;-75
2021/03/14 12:05:34;;;;;;;0.90;0.90;;;;;;;;;;4975627;28;20291;-74
2021/03/14 12:08:01;;;;;;;1.00;1.00;;;7.70;99.90;;;;;;4975562;28;20220;-74
2021/03/14 12:10:28;;;;;;;1.00;1.00;;;;;;;;;;4975554;28;20201;-74
2021/03/14 12:12:55;;;;;;;1.20;1.20;;;7.70;99.90;;;;;;4975440;28;20201;-74
2021/03/14 12:15:23;;;;;;;1.10;1.10;;;7.60;99.90;;;;;;4975305;28;20260;-74
2021/03/14 12:17:50;;;;;;;1.10;1.10;;;;;;;;;;4975372;28;20705;-79
2021/03/14 12:20:17;;;;;;;0.90;0.90;;;8.00;99.90;;;;;;4975401;28;20185;-77
2021/03/14 12:22:44;;;;;;;1.00;1.00;;;8.00;99.90;;;;;;4975742;28;20273;-78
2021/03/14 12:25:12;;;;;;;1.10;1.10;;;8.20;99.90;;;;;;4977846;28;20196;-77
2021/03/14 12:27:39;;;;;;;0.90;0.90;;;8.00;99.90;;;;;;4994916;28;20220;-77
2021/03/14 12:30:06;;;;;;;1.00;1.00;;;8.00;99.90;;;;;;4994668;28;20262;-77
2021/03/14 12:32:34;;;;;;;1.00;1.00;;;7.80;99.90;;;;;;4995165;28;20282;-78
2021/03/14 12:35:02;;;;;;;1.00;1.00;;;8.10;99.90;;;;;;4995192;28;20204;-77
2021/03/14 12:37:29;;;;;;;1.00;1.00;;;8.10;99.90;;;;;;4995701;28;20258;-77
2021/03/14 12:39:55;;;;;;;1.10;1.10;;;8.00;99.90;;;;;;4994745;28;20523;-77
2021/03/14 12:42:23;;;;;;;1.10;1.10;;;;;;;;;;4995001;28;20600;-78
2021/03/14 12:44:50;;;;;;;1.10;1.10;;;8.20;99.90;;;;;;4994765;28;20224;-77
2021/03/14 12:47:17;;;;;;;1.00;1.00;;;8.50;99.90;;;;;;4994961;28;20212;-78
2021/03/14 12:49:45;;;;;;;1.00;1.00;;;8.50;99.90;;;;;;4991786;28;20204;-77
2021/03/14 12:52:12;;;;;;;0.90;0.90;;;;;;;;;;4991192;28;20283;-77
2021/03/14 12:54:39;;;;;;;0.90;0.90;;;9.10;99.90;;;;;;4992760;28;20195;-76
2021/03/14 12:57:06;;;;;;;0.90;0.90;;;8.60;99.90;;;;;;5011991;28;20234;-76
2021/03/14 12:59:33;;;;;;;1.10;1.10;;;8.60;99.90;;;;;;5009214;28;20211;-76
2021/03/14 13:02:00;;;;;;;1.00;1.00;;;8.50;99.90;;;;;;4981439;28;20213;-77
2021/03/14 13:04:28;;;;;;;0.90;0.90;;;8.50;99.90;;;;;;4975186;28;20209;-77
2021/03/14 13:06:55;;;;;;;0.80;0.80;;;8.40;99.90;;;;;;4974055;28;20271;-77
2021/03/14 13:09:22;;;;;;;0.90;0.90;;;8.60;99.90;;;;;;4973753;28;20224;-76
2021/03/14 13:11:49;;;;;;;0.90;0.90;;;8.80;99.90;;;;;;4973756;28;20228;-77
2021/03/14 13:14:16;;;;;;;0.90;0.90;;;8.90;99.90;;;;;;4973184;28;20208;-76
2021/03/14 13:16:43;;;;;;;0.80;0.80;;;;;;;;;;4974552;28;20209;-78
2021/03/14 13:19:10;;;;;;;0.90;0.90;;;8.90;99.90;;;;;;4975002;28;20678;-76
2021/03/14 13:21:37;;;;;;;0.93;0.93;;;8.70;99.90;;;;;;4974111;28;20853;-76
2021/03/14 13:24:06;;;;;;;0.80;0.80;;;8.80;99.90;;;;;;4973882;28;20212;-78
2021/03/14 13:26:33;;;;;;;1.00;1.00;;;8.90;99.90;;;;;;4974040;28;20888;-78
2021/03/14 13:29:00;;;;;;;1.40;1.40;;;8.80;99.90;;;;;;4975661;28;20224;-79
2021/03/14 13:31:27;;;;;;;0.80;0.80;;;8.90;99.90;;;;;;4978470;28;20667;-80
2021/03/14 13:33:58;;;;;;;1.00;1.00;;;9.10;99.90;;;;;;4985634;28;20200;-78
2021/03/14 13:36:25;;;;;;;0.80;0.80;;;9.20;99.90;;;;;;4989737;28;20208;-80
2021/03/14 13:38:52;;;;;;;1.00;1.00;;;9.20;99.90;;;;;;4997845;28;20200;-80
2021/03/14 13:41:20;;;;;;;1.00;1.00;;;9.30;99.90;;;;;;5003647;28;20732;-79
2021/03/14 13:43:47;;;;;;;0.90;0.90;;;9.20;99.90;;;;;;4999015;28;20270;-79
2021/03/14 13:46:14;;;;;;;0.80;0.80;;;9.30;99.90;;;;;;4995822;28;20351;-79
2021/03/14 13:48:44;;;;;;;0.80;0.80;;;9.50;99.90;;;;;;4995309;28;20234;-78
2021/03/14 13:51:11;;;;;;;0.90;0.90;;;9.60;99.90;;;;;;4996942;28;20230;-78
2021/03/14 13:53:39;;;;;;;0.80;0.80;;;9.50;99.90;;;;;;4994153;28;20204;-79
2021/03/14 13:56:07;;;;;;;0.93;0.93;;;9.40;99.90;;;;;;4992591;28;20258;-79
2021/03/14 13:58:35;;;;;;;0.90;0.90;;;9.30;99.90;;;;;;4992627;28;20254;-79
2021/03/14 14:01:05;;;;;;;0.80;0.80;;;9.40;99.90;;;;;;4995226;28;20220;-79
2021/03/14 14:03:34;;;;;;;0.77;0.77;;;9.20;99.90;;;;;;4997041;28;20199;-78
2021/03/14 14:06:02;;;;;;;0.80;0.80;;;9.00;99.90;;;;;;4995089;28;20576;-78
2021/03/14 14:08:29;;;;;;;1.00;1.00;;;9.10;99.70;;;;;;4993574;28;20220;-79
2021/03/14 14:10:56;;;;;;;0.90;0.90;;;8.80;99.90;;;;;;4993902;28;20235;-78
2021/03/14 14:13:28;;;;;;;0.90;0.90;;;8.70;99.90;;;;;;4993169;28;20250;-78
2021/03/14 14:15:56;;;;;;;0.90;0.90;;;8.70;99.90;;;;;;4995701;28;20219;-79
2021/03/14 14:18:25;;;;;;;1.07;1.07;;;8.60;99.90;;;;;;4995462;28;20625;-79
2021/03/14 14:20:53;;;;;;;0.87;0.87;;;8.60;99.90;;;;;;4994681;28;20232;-77
2021/03/14 14:23:21;;;;;;;0.90;0.90;;;8.60;99.90;;;;;;4993252;28;20298;-79
2021/03/14 14:25:48;;;;;;;0.80;0.80;;;8.70;99.90;;;;;;4992784;28;20274;-77
2021/03/14 14:28:15;;;;;;;0.90;0.90;;;8.60;99.90;;;;;;4996030;28;20583;-79
2021/03/14 14:30:43;;;;;;;0.80;0.80;;;8.70;99.90;;;;;;4994441;28;20234;-78
2021/03/14 14:33:11;;;;;;;0.90;0.90;;;8.80;99.90;;;;;;4990885;28;20247;-79
2021/03/14 14:35:39;;;;;;;0.90;0.90;;;8.80;99.90;;;;;;4976212;28;20243;-78
2021/03/14 14:38:06;;;;;;;0.90;0.90;;;8.80;99.90;;;;;;4977736;28;20208;-78
2021/03/14 14:40:34;;;;;;;0.97;0.97;;;8.80;99.50;;;;;;4974090;28;20232;-78
2021/03/14 14:43:01;;;;;;;0.80;0.80;;;8.80;99.30;;;;;;4972404;28;20259;-76
2021/03/14 14:45:28;;;;;;;0.90;0.90;;;8.80;99.30;;;;;;4972738;28;20255;-77
2021/03/14 14:47:55;;;;;;;0.80;0.80;;;8.90;99.30;;;;;;4972191;28;20224;-78
2021/03/14 14:50:24;;;;;;;0.90;0.90;;;9.10;99.90;;;;;;4972751;28;20232;-79
2021/03/14 14:52:51;;;;;;;1.00;1.00;;;9.00;98.90;;;;;;4972095;28;20288;-77
2021/03/14 14:55:18;;;;;;;0.80;0.80;;;9.10;98.70;;;;;;4973466;28;20200;-79
2021/03/14 14:57:45;;;;;;;0.80;0.80;;;8.90;99.00;;;;;;4975109;28;21086;-76
2021/03/14 15:00:13;;;;;;;1.00;1.00;;;8.70;98.80;;;;;;4975048;28;20608;-79
2021/03/14 15:02:41;;;;;;;0.90;0.90;;;8.70;99.10;;;;;;4971948;28;20304;-77
2021/03/14 15:05:09;;;;;;;0.90;0.90;;;8.80;99.20;;;;;;4977183;28;20267;-77
2021/03/14 15:07:37;;;;;;;1.00;1.00;;;8.90;99.20;;;;;;4984320;28;20196;-78
2021/03/14 15:10:06;;;;;;;0.80;0.80;;;8.90;99.20;;;;;;4991522;28;20204;-77
2021/03/14 15:12:33;;;;;;;1.00;1.00;;;8.80;99.20;;;;;;4990765;28;20743;-76
2021/03/14 15:15:00;;;;;;;0.93;0.93;;;8.70;99.20;;;;;;4991635;28;20742;-76
2021/03/14 15:17:27;;;;;;;1.00;1.00;;;8.60;98.80;;;;;;4991960;28;20254;-76
2021/03/14 15:19:54;;;;;;;0.90;0.90;;;8.60;99.90;;;;;;4992026;28;20695;-75
2021/03/14 15:22:21;;;;;;;0.93;0.93;;;8.60;99.90;;;;;;4990595;28;20235;-75
2021/03/14 15:24:49;;;;;;;1.00;1.00;;;8.70;99.90;;;;;;4991329;28;20417;-75
2021/03/14 15:27:16;;;;;;;0.80;0.80;;;8.70;99.10;;;;;;4992348;28;20209;-76
2021/03/14 15:29:42;;;;;;;0.88;0.88;;;8.70;99.00;;;;;;4991903;28;20251;-77
2021/03/14 15:32:10;;;;;;;1.00;1.00;;;;;;;;;;4982373;28;20559;-77
2021/03/14 15:34:37;;;;;;;0.80;0.80;;;8.60;98.90;;;;;;4991520;28;20340;-78
2021/03/14 15:37:03;;;;;;;1.00;1.00;;;8.60;99.50;;;;;;4993359;28;20824;-78
2021/03/14 15:39:30;;;;;;;0.80;0.80;;;8.60;99.50;;;;;;4993464;28;20200;-77
2021/03/14 15:41:58;;;;;;;0.90;0.90;;;8.60;99.50;;;;;;4995104;28;20232;-77
2021/03/14 15:44:25;;;;;;;0.93;0.93;;;8.70;99.30;;;;;;4994223;28;20207;-75
2021/03/14 15:46:52;;;;;;;1.00;1.00;;;8.60;99.10;;;;;;4987757;28;20208;-77
2021/03/14 15:49:19;;;;;;;0.90;0.90;;;8.60;99.20;;;;;;4979930;28;20316;-77
2021/03/14 15:51:46;;;;;;;0.90;0.90;;;8.70;99.00;;;;;;4983380;28;20217;-75
2021/03/14 15:54:13;;;;;;;0.90;0.90;;;8.60;99.10;;;;;;4985566;28;20196;-75
2021/03/14 15:56:42;;;;;;;0.90;0.90;;;8.70;99.90;;;;;;4980053;28;20248;-76
2021/03/14 15:59:10;;;;;;;1.20;1.20;;;8.70;98.90;;;;;;4993155;28;20196;-76
2021/03/14 16:01:37;;;;;;;1.00;1.00;;;8.70;98.70;;;;;;4994191;28;20789;-75
2021/03/14 16:04:04;;;;;;;0.90;0.90;;;8.70;98.40;;;;;;4994615;28;20207;-75
2021/03/14 16:06:31;;;;;;;0.83;0.83;;;8.80;99.90;;;;;;4994510;28;20207;-75
2021/03/14 16:08:58;;;;;;;0.93;0.93;;;8.70;98.40;;;;;;4994180;28;20639;-75
2021/03/14 16:11:25;;;;;;;1.00;1.00;;;8.70;98.60;;;;;;4985203;28;20651;-76
2021/03/14 16:13:53;;;;;;;0.90;0.90;;;8.50;98.50;;;;;;4974747;28;20630;-76
2021/03/14 16:16:20;;;;;;;0.90;0.90;;;8.50;98.90;;;;;;4974875;28;20613;-76
2021/03/14 16:18:49;;;;;;;0.80;0.80;;;8.50;99.10;;;;;;4974618;28;20203;-76
2021/03/14 16:21:17;;;;;;;0.90;0.90;;;8.60;99.10;;;;;;4974439;28;20228;-75
2021/03/14 16:23:45;;;;;;;0.90;0.90;;;8.50;99.20;;;;;;4976492;28;20201;-76
2021/03/14 16:26:12;;;;;;;0.90;0.90;;;8.40;99.50;;;;;;4984638;28;20196;-75
2021/03/14 16:28:40;;;;;;;0.70;0.70;;;8.40;99.50;;;;;;4993412;28;20224;-75
2021/03/14 16:31:08;;;;;;;0.90;0.90;;;;;;;;;;4994096;28;20234;-75
2021/03/14 16:33:35;;;;;;;1.00;1.00;;;8.40;99.30;;;;;;4985946;28;20193;-75
2021/03/14 16:36:03;;;;;;;1.03;1.03;;;8.30;99.90;;;;;;4974849;28;20259;-75
2021/03/14 16:38:30;;;;;;;1.00;1.00;;;8.30;99.90;;;;;;4974358;28;20726;-74
2021/03/14 16:40:58;;;;;;;0.90;0.90;;;8.30;99.90;;;;;;4974283;28;20237;-75
2021/03/14 16:43:25;;;;;;;0.90;0.90;;;8.40;99.90;;;;;;4974473;28;20267;-75
2021/03/14 16:45:54;;;;;;;0.97;0.97;;;8.40;99.90;;;;;;4974760;28;20609;-75
2021/03/14 16:48:22;;;;;;;0.93;0.93;;;8.40;99.90;;;;;;4973294;28;20221;-74
2021/03/14 16:50:50;;;;;;;0.90;0.90;;;8.50;99.90;;;;;;4974166;28;20320;-75
2021/03/14 16:53:18;;;;;;;1.17;1.17;;;8.30;99.90;;;;;;4973769;28;20620;-75
2021/03/14 16:55:46;;;;;;;0.90;0.90;;;8.00;99.90;;;;;;4974341;28;20208;-76
2021/03/14 16:58:13;;;;;;;0.90;0.90;;;;;;;;;;4974321;28;20255;-75
2021/03/14 17:00:41;;;;;;;0.90;0.90;;;7.80;99.90;;;;;;4974117;28;20224;-75
2021/03/14 17:03:09;;;;;;;1.00;1.00;;;7.50;99.90;;;;;;4974351;28;20295;-75
2021/03/14 17:05:37;;;;;;;1.00;1.00;;;7.50;99.90;;;;;;4974189;28;20393;-76
2021/03/14 17:08:06;;;;;;;1.00;1.00;;;7.30;99.90;;;;;;4974158;28;20420;-76
2021/03/14 17:10:33;;;;;;;0.90;0.90;;;7.40;99.90;;;;;;4981872;28;20223;-77
2021/03/14 17:13:00;;;;;;;1.00;1.00;;;7.40;99.90;;;;;;4993181;28;20665;-76
2021/03/14 17:15:27;;;;;;;1.10;1.10;;;7.30;99.90;;;;;;4993324;28;20255;-76
2021/03/14 17:17:54;;;;;;;1.00;1.00;;;7.30;99.90;;;;;;4992873;28;20211;-75
2021/03/14 17:20:22;;;;;;;1.00;1.00;;;7.30;99.90;;;;;;4974890;28;20227;-76
2021/03/14 17:23:05;;;;;;;0.90;0.90;;;7.30;99.90;;;;;;4973721;28;20230;-76
2021/03/14 17:25:33;;;;;;;1.00;1.00;;;7.50;99.90;;;;;;4971862;28;20630;-75
2021/03/14 17:28:00;;;;;;;1.00;1.00;;;7.50;99.90;;;;;;4972057;28;20822;-75
2021/03/14 17:30:27;;;;;;;0.90;0.90;;;7.50;99.90;;;;;;4973685;28;20205;-76
2021/03/14 17:32:54;;;;;;;0.90;0.90;;;7.60;99.90;;;;;;4977369;28;20208;-78
2021/03/14 17:35:22;;;;;;;1.00;1.00;;;7.60;99.90;;;;;;4973719;28;20220;-76
2021/03/14 17:37:49;;;;;;;0.90;0.90;;;7.60;99.90;;;;;;4973879;28;20212;-76
2021/03/14 17:40:18;;;;;;;1.00;1.00;;;7.50;99.90;;;;;;4992892;28;20621;-76
2021/03/14 17:42:45;;;;;;;0.90;0.90;;;7.60;99.90;;;;;;4992462;28;20200;-75
2021/03/14 17:45:13;;;;;;;1.00;1.00;;;7.50;99.90;;;;;;4993241;28;20200;-74
2021/03/14 17:47:41;;;;;;;1.00;1.00;;;7.40;99.90;;;;;;4993584;28;20204;-76
2021/03/14 17:50:09;;;;;;;1.00;1.00;;;7.30;99.90;;;;;;4994129;28;20697;-78
2021/03/14 17:52:36;;;;;;;1.07;1.07;;;7.30;99.90;;;;;;4993475;28;20224;-75
2021/03/14 17:55:04;;;;;;;1.00;1.00;;;7.30;99.90;;;;;;4992758;28;20211;-77
2021/03/14 17:57:32;;;;;;;1.03;1.03;;;7.30;99.90;;;;;;4993191;28;20208;-76
2021/03/14 17:59:59;;;;;;;1.10;1.10;;;7.30;99.90;;;;;;4992156;28;20211;-74
2021/03/14 18:02:26;;;;;;;1.20;1.20;;;7.30;99.90;;;;;;4993394;28;20294;-75
2021/03/14 18:04:54;;;;;;;1.00;1.00;;;7.30;99.90;;;;;;4992725;28;20254;-74
2021/03/14 18:07:21;;;;;;;0.90;0.90;;;7.30;99.90;;;;;;4992404;28;20727;-75
2021/03/14 18:09:49;;;;;;;0.90;0.90;;;7.30;99.90;;;;;;4993268;28;20238;-78
2021/03/14 18:12:16;;;;;;;1.00;1.00;;;;;;;;;;4993080;28;20607;-78
2021/03/14 18:14:43;;;;;;;0.90;0.90;;;7.40;99.90;;;;;;4994705;28;20739;-81
2021/03/14 18:17:21;;;;;;;1.03;1.03;;;7.40;99.90;;;;;;4993893;28;20255;-79
2021/03/14 18:20:08;;;;;;;1.00;1.00;;;7.50;99.90;;;;;;4993897;28;20266;-81
2021/03/14 18:22:36;;;;;;;1.27;1.27;;;7.40;99.90;;;;;;4994401;28;20224;-78
2021/03/14 18:25:05;;;;;;;1.00;1.00;;;7.40;99.90;;;;;;4993741;28;20219;-76
2021/03/14 18:27:33;;;;;;;1.10;1.10;;;7.50;99.90;;;;;;4991602;28;20208;-76